Terminal Aerodrome Forecast
Issued by NWS

Home | Current Version | Previous Version | Text Only | Print | Product List | Glossary On
Versions: 1 2 3 4 5 6 7 8 9 10 11 12 13 14
000
FTUS43 KFGF 031139
TAFBJI
TAF
KBJI 031139Z 0312/0412 29005KT P6SM SCT035
     FM031600 32014G20KT P6SM FEW050
     FM040100 29007KT P6SM BKN040=

USA.gov is the U.S. government's official web portal to all federal, state and local government web resources and services.